sensor_id;sensor_type;location;lat;lon;timestamp;pressure;altitude;pressure_sealevel;temperature;humidity
13705;BME280;6924;52.122;9.952;2023-04-08T00:00:47;101163.78;;;5.71;93.21
13705;BME280;6924;52.122;9.952;2023-04-08T00:03:14;101158.75;;;5.73;93.02
13705;BME280;6924;52.122;9.952;2023-04-08T00:05:40;101158.69;;;5.68;92.78
13705;BME280;6924;52.122;9.952;2023-04-08T00:08:07;101161.72;;;5.62;93.77
13705;BME280;6924;52.122;9.952;2023-04-08T00:10:33;101162.38;;;5.42;94.87
13705;BME280;6924;52.122;9.952;2023-04-08T00:12:59;101163.72;;;5.34;95.00
13705;BME280;6924;52.122;9.952;2023-04-08T00:15:27;101163.81;;;5.44;94.61
13705;BME280;6924;52.122;9.952;2023-04-08T00:17:54;101167.75;;;5.43;94.98
13705;BME280;6924;52.122;9.952;2023-04-08T00:20:21;101159.72;;;5.57;94.44
13705;BME280;6924;52.122;9.952;2023-04-08T00:22:48;101165.91;;;5.59;94.89
13705;BME280;6924;52.122;9.952;2023-04-08T00:25:15;101166.50;;;5.61;94.29
13705;BME280;6924;52.122;9.952;2023-04-08T00:27:41;101159.53;;;5.69;93.66
13705;BME280;6924;52.122;9.952;2023-04-08T00:30:08;101163.78;;;5.71;93.07
13705;BME280;6924;52.122;9.952;2023-04-08T00:32:36;101163.81;;;5.76;93.37
13705;BME280;6924;52.122;9.952;2023-04-08T00:35:03;101155.44;;;5.82;92.81
13705;BME280;6924;52.122;9.952;2023-04-08T00:37:29;101157.59;;;5.42;94.70
13705;BME280;6924;52.122;9.952;2023-04-08T00:39:57;101158.25;;;5.49;94.99
13705;BME280;6924;52.122;9.952;2023-04-08T00:42:23;101156.91;;;5.25;97.20
13705;BME280;6924;52.122;9.952;2023-04-08T00:44:49;101157.03;;;5.13;98.93
13705;BME280;6924;52.122;9.952;2023-04-08T00:47:16;101144.63;;;5.04;99.53
13705;BME280;6924;52.122;9.952;2023-04-08T00:49:44;101150.00;;;4.83;100.00
13705;BME280;6924;52.122;9.952;2023-04-08T00:52:10;101144.03;;;5.02;100.00
13705;BME280;6924;52.122;9.952;2023-04-08T00:54:37;101149.44;;;5.08;100.00
13705;BME280;6924;52.122;9.952;2023-04-08T00:57:04;101151.13;;;5.09;100.00
13705;BME280;6924;52.122;9.952;2023-04-08T00:59:31;101157.72;;;4.98;100.00
13705;BME280;6924;52.122;9.952;2023-04-08T01:02:06;101158.88;;;4.75;100.00
13705;BME280;6924;52.122;9.952;2023-04-08T01:04:45;101162.41;;;4.65;100.00
13705;BME280;6924;52.122;9.952;2023-04-08T01:07:17;101164.47;;;4.75;100.00
13705;BME280;6924;52.122;9.952;2023-04-08T01:09:47;101164.13;;;4.71;100.00
13705;BME280;6924;52.122;9.952;2023-04-08T01:12:20;101176.22;;;4.72;100.00
13705;BME280;6924;52.122;9.952;2023-04-08T01:14:48;101163.16;;;4.83;100.00
13705;BME280;6924;52.122;9.952;2023-04-08T01:17:18;101168.63;;;4.94;100.00
13705;BME280;6924;52.122;9.952;2023-04-08T01:19:49;101166.63;;;4.90;100.00
13705;BME280;6924;52.122;9.952;2023-04-08T01:22:23;101169.91;;;4.87;100.00
13705;BME280;6924;52.122;9.952;2023-04-08T01:24:58;101163.06;;;5.00;100.00
13705;BME280;6924;52.122;9.952;2023-04-08T01:27:29;101168.75;;;4.83;100.00
13705;BME280;6924;52.122;9.952;2023-04-08T01:29:57;101167.66;;;4.84;100.00
13705;BME280;6924;52.122;9.952;2023-04-08T01:32:25;101167.00;;;4.99;100.00
13705;BME280;6924;52.122;9.952;2023-04-08T01:34:53;101170.06;;;4.75;100.00
13705;BME280;6924;52.122;9.952;2023-04-08T01:37:21;101162.97;;;4.67;100.00
13705;BME280;6924;52.122;9.952;2023-04-08T01:39:48;101151.31;;;4.53;100.00
13705;BME280;6924;52.122;9.952;2023-04-08T01:42:15;101160.25;;;4.50;100.00
13705;BME280;6924;52.122;9.952;2023-04-08T01:44:44;101157.25;;;4.57;100.00
13705;BME280;6924;52.122;9.952;2023-04-08T01:47:12;101153.13;;;4.43;100.00
13705;BME280;6924;52.122;9.952;2023-04-08T01:49:39;101139.84;;;4.33;100.00
13705;BME280;6924;52.122;9.952;2023-04-08T01:52:08;101149.91;;;4.34;100.00
13705;BME280;6924;52.122;9.952;2023-04-08T01:54:34;101151.81;;;4.28;100.00
13705;BME280;6924;52.122;9.952;2023-04-08T01:57:03;101153.50;;;4.51;100.00
13705;BME280;6924;52.122;9.952;2023-04-08T01:59:34;101158.13;;;4.63;100.00
13705;BME280;6924;52.122;9.952;2023-04-08T02:02:04;101156.84;;;4.70;100.00
13705;BME280;6924;52.122;9.952;2023-04-08T02:04:33;101162.00;;;4.57;100.00
13705;BME280;6924;52.122;9.952;2023-04-08T02:07:00;101160.50;;;4.49;100.00
13705;BME280;6924;52.122;9.952;2023-04-08T02:09:26;101163.72;;;4.41;100.00
13705;BME280;6924;52.122;9.952;2023-04-08T02:11:53;101165.41;;;4.59;100.00
13705;BME280;6924;52.122;9.952;2023-04-08T02:14:21;101168.84;;;4.44;100.00
13705;BME280;6924;52.122;9.952;2023-04-08T02:16:52;101163.88;;;4.51;100.00
13705;BME280;6924;52.122;9.952;2023-04-08T02:19:24;101170.72;;;4.60;100.00
13705;BME280;6924;52.122;9.952;2023-04-08T02:21:57;101164.22;;;4.54;100.00
13705;BME280;6924;52.122;9.952;2023-04-08T02:24:26;101164.91;;;4.67;100.00
13705;BME280;6924;52.122;9.952;2023-04-08T02:26:55;101163.53;;;4.69;100.00
13705;BME280;6924;52.122;9.952;2023-04-08T02:29:22;101164.47;;;4.75;100.00
13705;BME280;6924;52.122;9.952;2023-04-08T02:31:50;101160.28;;;4.55;100.00
13705;BME280;6924;52.122;9.952;2023-04-08T02:34:18;101163.44;;;4.59;100.00
13705;BME280;6924;52.122;9.952;2023-04-08T02:36:47;101166.75;;;4.56;100.00
13705;BME280;6924;52.122;9.952;2023-04-08T02:39:15;101156.91;;;4.53;100.00
13705;BME280;6924;52.122;9.952;2023-04-08T02:41:42;101166.28;;;4.42;100.00
13705;BME280;6924;52.122;9.952;2023-04-08T02:44:08;101158.66;;;4.38;100.00
13705;BME280;6924;52.122;9.952;2023-04-08T02:46:35;101161.84;;;4.24;100.00
13705;BME280;6924;52.122;9.952;2023-04-08T02:49:01;101165.41;;;4.20;100.00
13705;BME280;6924;52.122;9.952;2023-04-08T02:51:28;101170.94;;;4.14;100.00
13705;BME280;6924;52.122;9.952;2023-04-08T02:53:57;101171.44;;;4.11;100.00
13705;BME280;6924;52.122;9.952;2023-04-08T02:56:24;101171.28;;;4.01;100.00
13705;BME280;6924;52.122;9.952;2023-04-08T02:58:50;101175.53;;;4.04;100.00
13705;BME280;6924;52.122;9.952;2023-04-08T03:01:17;101179.91;;;4.17;100.00
13705;BME280;6924;52.122;9.952;2023-04-08T03:03:43;101175.59;;;4.09;100.00
13705;BME280;6924;52.122;9.952;2023-04-08T03:06:09;101193.84;;;3.94;100.00
13705;BME280;6924;52.122;9.952;2023-04-08T03:08:36;101183.59;;;4.00;100.00
13705;BME280;6924;52.122;9.952;2023-04-08T03:11:04;101192.75;;;4.12;100.00
13705;BME280;6924;52.122;9.952;2023-04-08T03:13:30;101190.94;;;4.23;100.00
13705;BME280;6924;52.122;9.952;2023-04-08T03:15:57;101185.31;;;4.23;100.00
13705;BME280;6924;52.122;9.952;2023-04-08T03:18:24;101188.75;;;4.08;100.00
13705;BME280;6924;52.122;9.952;2023-04-08T03:20:50;101189.19;;;4.00;100.00
13705;BME280;6924;52.122;9.952;2023-04-08T03:23:17;101186.91;;;3.97;100.00
13705;BME280;6924;52.122;9.952;2023-04-08T03:25:43;101194.84;;;4.05;100.00
13705;BME280;6924;52.122;9.952;2023-04-08T03:28:11;101188.16;;;4.06;100.00
13705;BME280;6924;52.122;9.952;2023-04-08T03:30:38;101194.53;;;4.02;100.00
13705;BME280;6924;52.122;9.952;2023-04-08T03:33:04;101196.16;;;3.98;100.00
13705;BME280;6924;52.122;9.952;2023-04-08T03:35:32;101200.16;;;4.02;100.00
13705;BME280;6924;52.122;9.952;2023-04-08T03:37:58;101193.34;;;3.98;100.00
13705;BME280;6924;52.122;9.952;2023-04-08T03:40:25;101199.53;;;4.00;100.00
13705;BME280;6924;52.122;9.952;2023-04-08T03:42:51;101195.63;;;4.01;100.00
13705;BME280;6924;52.122;9.952;2023-04-08T03:45:19;101202.84;;;4.13;100.00
13705;BME280;6924;52.122;9.952;2023-04-08T03:47:45;101201.88;;;4.25;100.00
13705;BME280;6924;52.122;9.952;2023-04-08T03:50:12;101197.72;;;4.27;100.00
13705;BME280;6924;52.122;9.952;2023-04-08T03:52:38;101196.09;;;4.31;100.00
13705;BME280;6924;52.122;9.952;2023-04-08T03:55:05;101196.03;;;4.26;100.00
13705;BME280;6924;52.122;9.952;2023-04-08T03:57:32;101196.28;;;4.25;100.00
13705;BME280;6924;52.122;9.952;2023-04-08T03:59:58;101199.91;;;4.25;100.00
13705;BME280;6924;52.122;9.952;2023-04-08T04:02:26;101196.72;;;4.17;100.00
13705;BME280;6924;52.122;9.952;2023-04-08T04:04:52;101202.66;;;4.20;100.00
13705;BME280;6924;52.122;9.952;2023-04-08T04:07:19;101203.09;;;4.12;100.00
13705;BME280;6924;52.122;9.952;2023-04-08T04:09:45;101204.03;;;4.18;100.00
13705;BME280;6924;52.122;9.952;2023-04-08T04:12:11;101203.25;;;4.22;100.00
13705;BME280;6924;52.122;9.952;2023-04-08T04:14:38;101202.47;;;4.27;100.00
13705;BME280;6924;52.122;9.952;2023-04-08T04:17:04;101194.06;;;4.27;100.00
13705;BME280;6924;52.122;9.952;2023-04-08T04:19:32;101198.25;;;4.24;100.00
13705;BME280;6924;52.122;9.952;2023-04-08T04:21:58;101199.00;;;4.20;100.00
13705;BME280;6924;52.122;9.952;2023-04-08T04:24:25;101215.16;;;4.12;100.00
13705;BME280;6924;52.122;9.952;2023-04-08T04:26:51;101213.75;;;4.32;100.00
13705;BME280;6924;52.122;9.952;2023-04-08T04:29:17;101216.13;;;4.23;100.00
13705;BME280;6924;52.122;9.952;2023-04-08T04:31:44;101217.34;;;4.10;100.00
13705;BME280;6924;52.122;9.952;2023-04-08T04:34:10;101220.81;;;4.01;100.00
13705;BME280;6924;52.122;9.952;2023-04-08T04:36:38;101223.03;;;4.16;100.00
13705;BME280;6924;52.122;9.952;2023-04-08T04:39:05;101226.34;;;4.12;100.00
13705;BME280;6924;52.122;9.952;2023-04-08T04:41:31;101220.28;;;4.21;100.00
13705;BME280;6924;52.122;9.952;2023-04-08T04:43:59;101230.66;;;4.20;100.00
13705;BME280;6924;52.122;9.952;2023-04-08T04:46:25;101236.59;;;4.24;100.00
13705;BME280;6924;52.122;9.952;2023-04-08T04:48:52;101235.00;;;4.28;100.00
13705;BME280;6924;52.122;9.952;2023-04-08T04:51:18;101236.44;;;4.30;100.00
13705;BME280;6924;52.122;9.952;2023-04-08T04:53:46;101237.75;;;4.45;100.00
13705;BME280;6924;52.122;9.952;2023-04-08T04:56:14;101241.47;;;4.50;100.00
13705;BME280;6924;52.122;9.952;2023-04-08T04:58:40;101254.66;;;4.33;100.00
13705;BME280;6924;52.122;9.952;2023-04-08T05:01:07;101251.50;;;4.29;100.00
13705;BME280;6924;52.122;9.952;2023-04-08T05:03:33;101258.13;;;4.23;100.00
13705;BME280;6924;52.122;9.952;2023-04-08T05:06:00;101259.66;;;4.31;100.00
13705;BME280;6924;52.122;9.952;2023-04-08T05:08:26;101254.06;;;4.31;100.00
13705;BME280;6924;52.122;9.952;2023-04-08T05:10:54;101259.59;;;4.26;100.00
13705;BME280;6924;52.122;9.952;2023-04-08T05:13:21;101257.13;;;4.29;100.00
13705;BME280;6924;52.122;9.952;2023-04-08T05:15:47;101270.34;;;4.34;100.00
13705;BME280;6924;52.122;9.952;2023-04-08T05:18:14;101262.66;;;4.24;100.00
13705;BME280;6924;52.122;9.952;2023-04-08T05:20:40;101271.06;;;4.24;100.00
13705;BME280;6924;52.122;9.952;2023-04-08T05:23:06;101261.34;;;4.32;100.00
13705;BME280;6924;52.122;9.952;2023-04-08T05:25:33;101261.88;;;4.46;100.00
13705;BME280;6924;52.122;9.952;2023-04-08T05:28:01;101256.94;;;4.36;100.00
13705;BME280;6924;52.122;9.952;2023-04-08T05:30:27;101257.88;;;4.42;100.00
13705;BME280;6924;52.122;9.952;2023-04-08T05:32:54;101258.13;;;4.40;100.00
13705;BME280;6924;52.122;9.952;2023-04-08T05:35:21;101261.16;;;4.55;100.00
13705;BME280;6924;52.122;9.952;2023-04-08T05:37:47;101263.97;;;4.55;100.00
13705;BME280;6924;52.122;9.952;2023-04-08T05:40:13;101269.22;;;4.52;100.00
13705;BME280;6924;52.122;9.952;2023-04-08T05:42:40;101268.38;;;4.51;100.00
13705;BME280;6924;52.122;9.952;2023-04-08T05:45:09;101264.09;;;4.27;100.00
13705;BME280;6924;52.122;9.952;2023-04-08T05:47:36;101271.88;;;4.25;100.00
13705;BME280;6924;52.122;9.952;2023-04-08T05:50:02;101278.94;;;4.27;100.00
13705;BME280;6924;52.122;9.952;2023-04-08T05:52:29;101277.25;;;4.26;100.00
13705;BME280;6924;52.122;9.952;2023-04-08T05:54:55;101273.56;;;4.43;100.00
13705;BME280;6924;52.122;9.952;2023-04-08T05:57:22;101272.28;;;4.50;100.00
13705;BME280;6924;52.122;9.952;2023-04-08T05:59:48;101272.19;;;4.45;100.00
13705;BME280;6924;52.122;9.952;2023-04-08T06:02:16;101282.31;;;4.46;100.00
13705;BME280;6924;52.122;9.952;2023-04-08T06:04:42;101285.72;;;4.48;100.00
13705;BME280;6924;52.122;9.952;2023-04-08T06:07:09;101276.19;;;4.49;100.00
13705;BME280;6924;52.122;9.952;2023-04-08T06:09:35;101281.59;;;4.56;100.00
13705;BME280;6924;52.122;9.952;2023-04-08T06:12:02;101282.13;;;4.70;100.00
13705;BME280;6924;52.122;9.952;2023-04-08T06:14:29;101279.38;;;4.75;100.00
13705;BME280;6924;52.122;9.952;2023-04-08T06:16:55;101289.28;;;4.83;100.00
13705;BME280;6924;52.122;9.952;2023-04-08T06:19:23;101289.28;;;4.83;100.00
13705;BME280;6924;52.122;9.952;2023-04-08T06:21:50;101289.94;;;4.68;100.00
13705;BME280;6924;52.122;9.952;2023-04-08T06:24:16;101290.44;;;4.65;100.00
13705;BME280;6924;52.122;9.952;2023-04-08T06:26:43;101294.16;;;4.70;100.00
13705;BME280;6924;52.122;9.952;2023-04-08T06:29:09;101306.75;;;4.68;100.00
13705;BME280;6924;52.122;9.952;2023-04-08T06:31:36;101302.88;;;4.74;100.00
13705;BME280;6924;52.122;9.952;2023-04-08T06:34:02;101302.22;;;4.67;100.00
13705;BME280;6924;52.122;9.952;2023-04-08T06:36:30;101302.31;;;4.72;100.00
13705;BME280;6924;52.122;9.952;2023-04-08T06:38:56;101308.84;;;4.61;100.00
13705;BME280;6924;52.122;9.952;2023-04-08T06:41:23;101309.38;;;4.74;100.00
13705;BME280;6924;52.122;9.952;2023-04-08T06:43:49;101314.50;;;4.83;100.00
13705;BME280;6924;52.122;9.952;2023-04-08T06:46:15;101317.84;;;4.80;100.00
13705;BME280;6924;52.122;9.952;2023-04-08T06:48:42;101315.81;;;4.75;100.00
13705;BME280;6924;52.122;9.952;2023-04-08T06:51:08;101323.97;;;4.76;100.00
13705;BME280;6924;52.122;9.952;2023-04-08T06:53:37;101334.59;;;4.74;100.00
13705;BME280;6924;52.122;9.952;2023-04-08T06:56:03;101340.31;;;4.85;100.00
13705;BME280;6924;52.122;9.952;2023-04-08T06:58:30;101338.47;;;4.90;100.00
13705;BME280;6924;52.122;9.952;2023-04-08T07:00:58;101340.06;;;4.86;100.00
13705;BME280;6924;52.122;9.952;2023-04-08T07:03:25;101339.53;;;4.89;100.00
13705;BME280;6924;52.122;9.952;2023-04-08T07:05:51;101333.63;;;4.86;100.00
13705;BME280;6924;52.122;9.952;2023-04-08T07:08:18;101340.72;;;4.93;100.00
13705;BME280;6924;52.122;9.952;2023-04-08T07:10:46;101340.72;;;4.93;100.00
13705;BME280;6924;52.122;9.952;2023-04-08T07:13:12;101335.72;;;4.95;100.00
13705;BME280;6924;52.122;9.952;2023-04-08T07:15:39;101336.84;;;4.94;100.00
13705;BME280;6924;52.122;9.952;2023-04-08T07:18:06;101341.06;;;4.97;100.00
13705;BME280;6924;52.122;9.952;2023-04-08T07:20:32;101345.91;;;5.02;100.00
13705;BME280;6924;52.122;9.952;2023-04-08T07:23:02;101346.31;;;5.10;100.00
13705;BME280;6924;52.122;9.952;2023-04-08T07:25:29;101351.91;;;5.10;100.00
13705;BME280;6924;52.122;9.952;2023-04-08T07:27:56;101345.28;;;5.16;100.00
13705;BME280;6924;52.122;9.952;2023-04-08T07:30:23;101348.06;;;5.16;100.00
13705;BME280;6924;52.122;9.952;2023-04-08T07:32:49;101352.63;;;5.01;100.00
13705;BME280;6924;52.122;9.952;2023-04-08T07:35:16;101353.50;;;4.84;100.00
13705;BME280;6924;52.122;9.952;2023-04-08T07:37:48;101346.88;;;4.90;100.00
13705;BME280;6924;52.122;9.952;2023-04-08T07:40:14;101356.47;;;4.94;100.00
13705;BME280;6924;52.122;9.952;2023-04-08T07:42:41;101355.50;;;5.06;100.00
13705;BME280;6924;52.122;9.952;2023-04-08T07:45:09;101351.72;;;5.17;100.00
13705;BME280;6924;52.122;9.952;2023-04-08T07:47:36;101352.97;;;5.26;100.00
13705;BME280;6924;52.122;9.952;2023-04-08T07:50:03;101357.34;;;5.17;100.00
13705;BME280;6924;52.122;9.952;2023-04-08T07:52:30;101365.56;;;5.24;100.00
13705;BME280;6924;52.122;9.952;2023-04-08T07:54:56;101361.06;;;5.23;100.00
13705;BME280;6924;52.122;9.952;2023-04-08T07:57:22;101368.03;;;5.20;100.00
13705;BME280;6924;52.122;9.952;2023-04-08T07:59:49;101364.97;;;5.22;100.00
13705;BME280;6924;52.122;9.952;2023-04-08T08:02:17;101373.84;;;5.35;100.00
13705;BME280;6924;52.122;9.952;2023-04-08T08:04:43;101377.22;;;5.37;100.00
13705;BME280;6924;52.122;9.952;2023-04-08T08:07:09;101374.97;;;5.34;100.00
13705;BME280;6924;52.122;9.952;2023-04-08T08:09:36;101378.47;;;5.47;100.00
13705;BME280;6924;52.122;9.952;2023-04-08T08:12:02;101378.75;;;5.45;100.00
13705;BME280;6924;52.122;9.952;2023-04-08T08:14:29;101380.75;;;5.28;100.00
13705;BME280;6924;52.122;9.952;2023-04-08T08:16:55;101382.72;;;5.27;100.00
13705;BME280;6924;52.122;9.952;2023-04-08T08:19:23;101383.69;;;5.16;100.00
13705;BME280;6924;52.122;9.952;2023-04-08T08:21:49;101386.94;;;5.08;100.00
13705;BME280;6924;52.122;9.952;2023-04-08T08:24:16;101399.34;;;5.12;100.00
13705;BME280;6924;52.122;9.952;2023-04-08T08:26:43;101399.59;;;5.10;100.00
13705;BME280;6924;52.122;9.952;2023-04-08T08:29:11;101400.25;;;5.17;100.00
13705;BME280;6924;52.122;9.952;2023-04-08T08:31:37;101402.75;;;4.97;100.00
13705;BME280;6924;52.122;9.952;2023-04-08T08:34:04;101405.81;;;4.95;100.00
13705;BME280;6924;52.122;9.952;2023-04-08T08:36:32;101408.78;;;5.06;100.00
13705;BME280;6924;52.122;9.952;2023-04-08T08:38:58;101397.56;;;5.06;100.00
13705;BME280;6924;52.122;9.952;2023-04-08T08:41:25;101406.38;;;5.14;100.00
13705;BME280;6924;52.122;9.952;2023-04-08T08:43:52;101404.53;;;5.03;100.00
13705;BME280;6924;52.122;9.952;2023-04-08T08:46:20;101405.91;;;5.01;100.00
13705;BME280;6924;52.122;9.952;2023-04-08T08:48:47;101402.97;;;5.12;100.00
13705;BME280;6924;52.122;9.952;2023-04-08T08:51:13;101403.25;;;5.33;100.00
13705;BME280;6924;52.122;9.952;2023-04-08T08:53:41;101406.66;;;5.35;100.00
13705;BME280;6924;52.122;9.952;2023-04-08T08:56:09;101409.25;;;5.20;100.00
13705;BME280;6924;52.122;9.952;2023-04-08T08:58:36;101409.72;;;5.33;100.00
13705;BME280;6924;52.122;9.952;2023-04-08T09:01:34;101416.50;;;5.37;100.00
13705;BME280;6924;52.122;9.952;2023-04-08T09:04:09;101413.66;;;5.54;100.00
13705;BME280;6924;52.122;9.952;2023-04-08T09:06:36;101421.16;;;5.49;100.00
13705;BME280;6924;52.122;9.952;2023-04-08T09:09:03;101423.50;;;5.57;100.00
13705;BME280;6924;52.122;9.952;2023-04-08T09:11:34;101420.31;;;5.48;100.00
13705;BME280;6924;52.122;9.952;2023-04-08T09:14:01;101421.94;;;5.44;100.00
13705;BME280;6924;52.122;9.952;2023-04-08T09:16:29;101426.91;;;5.59;100.00
13705;BME280;6924;52.122;9.952;2023-04-08T09:19:08;101431.03;;;5.73;100.00
13705;BME280;6924;52.122;9.952;2023-04-08T09:21:36;101435.38;;;5.86;100.00
13705;BME280;6924;52.122;9.952;2023-04-08T09:24:03;101437.88;;;5.83;100.00
13705;BME280;6924;52.122;9.952;2023-04-08T09:26:29;101443.59;;;5.71;100.00
13705;BME280;6924;52.122;9.952;2023-04-08T09:28:57;101450.41;;;5.75;100.00
13705;BME280;6924;52.122;9.952;2023-04-08T09:31:25;101446.38;;;5.66;100.00
13705;BME280;6924;52.122;9.952;2023-04-08T09:33:53;101449.50;;;5.69;100.00
13705;BME280;6924;52.122;9.952;2023-04-08T09:36:22;101453.22;;;5.75;100.00
13705;BME280;6924;52.122;9.952;2023-04-08T09:38:48;101451.97;;;5.88;100.00
13705;BME280;6924;52.122;9.952;2023-04-08T09:41:16;101449.13;;;6.05;100.00
13705;BME280;6924;52.122;9.952;2023-04-08T09:43:48;101461.53;;;5.87;100.00
13705;BME280;6924;52.122;9.952;2023-04-08T09:46:25;101461.06;;;5.95;100.00
13705;BME280;6924;52.122;9.952;2023-04-08T09:49:00;101463.19;;;6.05;100.00
13705;BME280;6924;52.122;9.952;2023-04-08T09:51:35;101465.22;;;5.92;100.00
13705;BME280;6924;52.122;9.952;2023-04-08T09:54:11;101466.78;;;6.00;100.00
13705;BME280;6924;52.122;9.952;2023-04-08T09:56:41;101462.97;;;6.11;100.00
13705;BME280;6924;52.122;9.952;2023-04-08T09:59:12;101465.81;;;6.16;100.00
13705;BME280;6924;52.122;9.952;2023-04-08T10:01:50;101461.59;;;6.14;100.00
13705;BME280;6924;52.122;9.952;2023-04-08T10:04:20;101461.72;;;6.24;100.00
13705;BME280;6924;52.122;9.952;2023-04-08T10:06:53;101459.50;;;6.26;100.00
13705;BME280;6924;52.122;9.952;2023-04-08T10:09:20;101459.28;;;6.33;100.00
13705;BME280;6924;52.122;9.952;2023-04-08T10:11:48;101457.53;;;6.27;100.00
13705;BME280;6924;52.122;9.952;2023-04-08T10:14:14;101452.50;;;6.29;100.00
13705;BME280;6924;52.122;9.952;2023-04-08T10:16:41;101454.81;;;6.37;100.00
13705;BME280;6924;52.122;9.952;2023-04-08T10:19:35;101460.59;;;6.25;100.00
13705;BME280;6924;52.122;9.952;2023-04-08T10:22:03;101461.22;;;6.05;100.00
13705;BME280;6924;52.122;9.952;2023-04-08T10:24:29;101469.59;;;6.00;100.00
13705;BME280;6924;52.122;9.952;2023-04-08T10:26:56;101471.81;;;5.98;100.00
13705;BME280;6924;52.122;9.952;2023-04-08T10:29:40;101473.28;;;6.06;100.00
13705;BME280;6924;52.122;9.952;2023-04-08T10:32:06;101465.97;;;6.05;100.00
13705;BME280;6924;52.122;9.952;2023-04-08T10:34:33;101461.13;;;6.22;100.00
13705;BME280;6924;52.122;9.952;2023-04-08T10:36:59;101457.25;;;6.28;100.00
13705;BME280;6924;52.122;9.952;2023-04-08T10:39:29;101461.16;;;6.00;100.00
13705;BME280;6924;52.122;9.952;2023-04-08T10:41:56;101457.28;;;6.06;100.00
13705;BME280;6924;52.122;9.952;2023-04-08T10:44:23;101461.53;;;6.09;100.00
13705;BME280;6924;52.122;9.952;2023-04-08T10:46:52;101467.22;;;6.14;100.00
13705;BME280;6924;52.122;9.952;2023-04-08T10:49:18;101462.13;;;6.11;100.00
13705;BME280;6924;52.122;9.952;2023-04-08T10:51:46;101475.97;;;6.17;100.00
13705;BME280;6924;52.122;9.952;2023-04-08T10:54:14;101472.81;;;6.14;100.00
13705;BME280;6924;52.122;9.952;2023-04-08T10:56:47;101474.84;;;6.18;100.00
13705;BME280;6924;52.122;9.952;2023-04-08T10:59:15;101476.44;;;6.09;100.00
13705;BME280;6924;52.122;9.952;2023-04-08T11:01:45;101481.47;;;6.07;100.00
13705;BME280;6924;52.122;9.952;2023-04-08T11:04:13;101474.41;;;6.05;100.00
13705;BME280;6924;52.122;9.952;2023-04-08T11:06:41;101478.59;;;6.02;100.00
13705;BME280;6924;52.122;9.952;2023-04-08T11:09:08;101480.66;;;6.12;100.00
13705;BME280;6924;52.122;9.952;2023-04-08T11:11:34;101480.16;;;6.42;100.00
13705;BME280;6924;52.122;9.952;2023-04-08T11:14:02;101482.78;;;6.49;100.00
13705;BME280;6924;52.122;9.952;2023-04-08T11:16:29;101483.81;;;6.43;100.00
13705;BME280;6924;52.122;9.952;2023-04-08T11:18:56;101484.88;;;6.36;100.00
13705;BME280;6924;52.122;9.952;2023-04-08T11:21:24;101485.47;;;6.38;100.00
13705;BME280;6924;52.122;9.952;2023-04-08T11:23:54;101483.03;;;6.47;100.00
13705;BME280;6924;52.122;9.952;2023-04-08T11:26:21;101482.09;;;6.41;100.00
13705;BME280;6924;52.122;9.952;2023-04-08T11:28:48;101492.59;;;6.46;100.00
13705;BME280;6924;52.122;9.952;2023-04-08T11:31:19;101500.03;;;6.62;100.00
13705;BME280;6924;52.122;9.952;2023-04-08T11:33:47;101495.63;;;6.72;100.00
13705;BME280;6924;52.122;9.952;2023-04-08T11:36:16;101494.31;;;6.79;100.00
13705;BME280;6924;52.122;9.952;2023-04-08T11:38:43;101488.47;;;6.59;100.00
13705;BME280;6924;52.122;9.952;2023-04-08T11:41:12;101489.19;;;6.44;100.00
13705;BME280;6924;52.122;9.952;2023-04-08T11:43:38;101489.38;;;6.65;100.00
13705;BME280;6924;52.122;9.952;2023-04-08T11:46:09;101491.44;;;6.74;100.00
13705;BME280;6924;52.122;9.952;2023-04-08T11:48:38;101498.38;;;6.61;100.00
13705;BME280;6924;52.122;9.952;2023-04-08T11:51:05;101491.50;;;6.52;100.00
13705;BME280;6924;52.122;9.952;2023-04-08T11:53:34;101487.97;;;6.62;100.00
13705;BME280;6924;52.122;9.952;2023-04-08T11:56:15;101485.72;;;6.64;100.00
13705;BME280;6924;52.122;9.952;2023-04-08T11:58:41;101484.09;;;6.68;100.00
13705;BME280;6924;52.122;9.952;2023-04-08T12:01:08;101486.50;;;6.87;100.00
13705;BME280;6924;52.122;9.952;2023-04-08T12:03:34;101491.53;;;6.85;100.00
13705;BME280;6924;52.122;9.952;2023-04-08T12:06:02;101490.22;;;6.65;100.00
13705;BME280;6924;52.122;9.952;2023-04-08T12:08:29;101492.25;;;6.70;100.00
13705;BME280;6924;52.122;9.952;2023-04-08T12:10:56;101494.09;;;6.59;100.00
13705;BME280;6924;52.122;9.952;2023-04-08T12:13:22;101494.47;;;6.68;100.00
13705;BME280;6924;52.122;9.952;2023-04-08T12:15:48;101495.13;;;6.75;100.00
13705;BME280;6924;52.122;9.952;2023-04-08T12:18:15;101493.94;;;6.71;100.00
13705;BME280;6924;52.122;9.952;2023-04-08T12:20:41;101501.31;;;6.77;100.00
13705;BME280;6924;52.122;9.952;2023-04-08T12:23:09;101497.97;;;6.80;100.00
13705;BME280;6924;52.122;9.952;2023-04-08T12:25:35;101499.19;;;6.94;100.00
13705;BME280;6924;52.122;9.952;2023-04-08T12:28:02;101497.03;;;7.01;100.00
13705;BME280;6924;52.122;9.952;2023-04-08T12:30:28;101499.13;;;6.84;100.00
13705;BME280;6924;52.122;9.952;2023-04-08T12:32:55;101500.22;;;6.83;100.00
13705;BME280;6924;52.122;9.952;2023-04-08T12:35:22;101499.28;;;6.72;100.00
13705;BME280;6924;52.122;9.952;2023-04-08T12:37:48;101496.69;;;6.66;100.00
13705;BME280;6924;52.122;9.952;2023-04-08T12:40:16;101495.03;;;6.70;100.00
13705;BME280;6924;52.122;9.952;2023-04-08T12:42:43;101496.84;;;6.81;100.00
13705;BME280;6924;52.122;9.952;2023-04-08T12:45:09;101488.69;;;6.79;100.00
13705;BME280;6924;52.122;9.952;2023-04-08T12:47:36;101489.09;;;6.93;100.00
13705;BME280;6924;52.122;9.952;2023-04-08T12:50:03;101481.13;;;6.85;100.00
13705;BME280;6924;52.122;9.952;2023-04-08T12:52:29;101488.63;;;7.07;100.00
13705;BME280;6924;52.122;9.952;2023-04-08T12:54:56;101488.09;;;7.10;100.00
13705;BME280;6924;52.122;9.952;2023-04-08T12:57:24;101485.72;;;6.96;100.00
13705;BME280;6924;52.122;9.952;2023-04-08T12:59:51;101496.34;;;6.89;100.00
13705;BME280;6924;52.122;9.952;2023-04-08T13:02:17;101492.50;;;7.00;100.00